Nexoe Maersk — OVYB2 — position and weather

sailwx.info

Track history (hours):
 
Tides and Currents Weather Stations Pressure Air Temp Water Temp Dewpoint Dewpoint Depression Visibility Wind Speed Wind Dir Waves Ship Positions

Nexoe Maersk

Last reported at 2017-Sep-19 08:10 UTC. Time now 2017-Sep-19 11:46 UTC.
Position N 37°13' W 001°05'.

Length 198 m; beam 30 m; draft 11 m.

Type: Cargo ship. MMSI: 219955000.

Date/timePositionNaut miles runAvg speedWind from/ knotsBaromVisibWave heightAir tempDewpointWater temp
2017-Sep-19 08:10N 37°13' W 001°05'211.4
2017-Sep-19 08:00N 37°14' W 001°03'611.5
2017-Sep-19 07:30N 37°18' W 000°57'611.5
2017-Sep-19 07:00N 37°21' W 000°52'611.6
2017-Sep-19 06:30N 37°25' W 000°47'611.4
2017-Sep-19 06:00N 37°29' W 000°42'510.9
2017-Sep-19 05:30N 37°33' W 000°36'611.1
2017-Sep-19 05:00N 37°37' W 000°31'611.5
2017-Sep-19 04:30N 37°42' W 000°27'611.5
2017-Sep-19 04:00N 37°46' W 000°23'611.5
2017-Sep-19 03:28N 37°51' W 000°19'611.4
2017-Sep-19 02:58N 37°57' W 000°15'511.5
2017-Sep-19 02:30N 38°01' W 000°12'11511.4
2017-Sep-18 16:26N 39°41' E 001°03'511.9
2017-Sep-18 16:00N 39°45' E 001°06'612.1
2017-Sep-18 15:29N 39°51' E 001°10'612.5
2017-Sep-18 15:00N 39°56' E 001°14'612.6
2017-Sep-18 14:30N 40°01' E 001°18'612.7
2017-Sep-18 14:00N 40°07' E 001°22'612.6
2017-Sep-18 13:30N 40°12' E 001°26'612.3
2017-Sep-18 13:00N 40°18' E 001°30'611.7
2017-Sep-18 12:30N 40°23' E 001°33'611.7
2017-Sep-18 12:00N 40°28' E 001°37'611.6
2017-Sep-18 11:30N 40°33' E 001°40'611.5
2017-Sep-18 11:00N 40°38' E 001°44'611.5
2017-Sep-18 10:30N 40°44' E 001°47'611.5
2017-Sep-18 10:00N 40°49' E 001°50'611.5
2017-Sep-18 09:30N 40°54' E 001°54'611.5
2017-Sep-18 09:00N 40°59' E 001°58'611.4
2017-Sep-18 08:30N 41°04' E 002°01'611.2
2017-Sep-18 08:00N 41°09' E 002°05'611.2
2017-Sep-18 07:30N 41°14' E 002°09'5 9.9
2017-Sep-18 07:00N 41°19' E 002°10'1 0.1
2017-Sep-17 16:52N 41°19' E 002°09'0 0.0
2017-Sep-17 16:16N 41°19' E 002°09'0 0.0
2017-Sep-17 15:58N 41°19' E 002°09'0 0.0
2017-Sep-17 15:25N 41°19' E 002°09'0 0.0
2017-Sep-17 15:01N 41°19' E 002°09'0 0.0
2017-Sep-17 14:29N 41°19' E 002°09'0 0.0
2017-Sep-17 14:00N 41°19' E 002°09'0 0.0
2017-Sep-17 13:29N 41°19' E 002°09'0 0.0
2017-Sep-17 12:57N 41°19' E 002°09'0 0.0
2017-Sep-17 12:22N 41°19' E 002°09'0 0.0
2017-Sep-17 11:52N 41°19' E 002°09'1 1.7
2017-Sep-17 11:29N 41°19' E 002°10'4 7.6
2017-Sep-17 11:00N 41°16' E 002°12'816.5
2017-Sep-17 10:30N 41°09' E 002°05'1020.5
2017-Sep-17 10:00N 41°01' E 001°57'1020.3
2017-Sep-17 09:30N 40°52' E 001°50'1020.4
2017-Sep-17 09:00N 40°44' E 001°42'1020.3
2017-Sep-17 08:30N 40°36' E 001°35'1020.1
2017-Sep-17 08:00N 40°27' E 001°27'1020.2
2017-Sep-17 07:30N 40°19' E 001°20'1019.5
2017-Sep-17 07:00N 40°11' E 001°12'1019.5
2017-Sep-17 06:30N 40°03' E 001°05'1019.4
2017-Sep-17 06:00N 39°55' E 000°58'43 1.5
2017-Sep-16 00:14N 39°14' E 001°19'416.0
2017-Sep-16 00:00N 39°14' E 001°24'816.1
2017-Sep-15 23:30N 39°13' E 001°34'816.0
2017-Sep-15 23:00N 39°11' E 001°44'816.0
2017-Sep-15 22:30N 39°10' E 001°54'816.5
2017-Sep-15 22:00N 39°08' E 002°04'917.1
2017-Sep-15 21:30N 39°06' E 002°15'817.2
2017-Sep-15 21:00N 39°04' E 002°26'917.0
2017-Sep-15 20:30N 39°02' E 002°37'816.7
2017-Sep-15 20:00N 39°00' E 002°47'816.4
2017-Sep-15 19:30N 38°59' E 002°57'816.0
2017-Sep-15 19:00N 38°58' E 003°07'815.8
2017-Sep-15 18:30N 38°56' E 003°17'815.9
2017-Sep-15 18:00N 38°54' E 003°27'815.8
2017-Sep-15 17:30N 38°52' E 003°37'815.8
2017-Sep-15 17:00N 38°50' E 003°47'915.9
2017-Sep-15 16:26N 38°48' E 003°58'22315.8
2017-Sep-15 02:22N 37°54' E 008°34'615.7
2017-Sep-15 02:00N 37°53' E 008°41'1315.6
2017-Sep-15 01:11N 37°50' E 008°57'415.6
2017-Sep-15 00:54N 37°50' E 009°02'815.8
2017-Sep-15 00:25N 37°48' E 009°11'615.6
2017-Sep-15 00:00N 37°46' E 009°19'815.5
2017-Sep-14 23:30N 37°45' E 009°29'815.3
2017-Sep-14 22:59N 37°43' E 009°39'815.2
2017-Sep-14 22:30N 37°41' E 009°48'715.3
2017-Sep-14 22:00N 37°40' E 009°57'815.5
2017-Sep-14 21:30N 37°40' E 010°07'815.3
2017-Sep-14 21:00N 37°40' E 010°17'1015.5
2017-Sep-14 20:22N 37°37' E 010°29'515.5
2017-Sep-14 20:00N 37°36' E 010°36'815.6
2017-Sep-14 19:30N 37°34' E 010°45'2315.7
2017-Sep-14 18:03N 37°26' E 011°12'116.1
2017-Sep-14 18:00N 37°26' E 011°13'816.0
2017-Sep-14 17:30N 37°22' E 011°22'816.0
2017-Sep-14 17:00N 37°18' E 011°31'816.1
2017-Sep-14 16:30N 37°14' E 011°40'816.1
2017-Sep-14 15:59N 37°10' E 011°48'2216.0
2017-Sep-14 14:35N 36°57' E 012°12'115.9
2017-Sep-14 14:30N 36°56' E 012°13'816.1
2017-Sep-14 14:00N 36°51' E 012°21'816.2
2017-Sep-14 13:31N 36°46' E 012°29'816.1
2017-Sep-14 13:00N 36°41' E 012°37'816.1
2017-Sep-14 12:31N 36°37' E 012°45'816.2
2017-Sep-14 12:00N 36°33' E 012°54'816.4
2017-Sep-14 11:30N 36°29' E 013°03'1016.4
2017-Sep-14 10:55N 36°23' E 013°13'716.3
2017-Sep-14 10:30N 36°19' E 013°19'816.1
2017-Sep-14 10:00N 36°15' E 013°28'815.7
2017-Sep-14 09:30N 36°10' E 013°35'815.7
2017-Sep-14 09:00N 36°06' E 013°43'815.5
2017-Sep-14 08:30N 36°02' E 013°52'815.7
2017-Sep-14 08:00N 35°58' E 013°60'815.8
2017-Sep-14 07:30N 35°53' E 014°08'815.7
2017-Sep-14 07:00N 35°49' E 014°16'815.5
2017-Sep-14 06:30N 35°44' E 014°24'815.3
2017-Sep-14 06:00N 35°45' E 014°33'4 8.0
2017-Sep-14 05:30N 35°49' E 014°33'0 0.5
2017-Sep-14 05:00N 35°49' E 014°32'0 0.0
2017-Sep-14 04:30N 35°49' E 014°32'0 0.0
2017-Sep-14 04:00N 35°49' E 014°32'0 0.0
2017-Sep-14 03:30N 35°49' E 014°32'0 0.0
2017-Sep-14 02:58N 35°49' E 014°32'0 0.0
2017-Sep-14 02:30N 35°49' E 014°32'0 0.0
2017-Sep-14 02:00N 35°49' E 014°32'0 0.0
2017-Sep-14 01:29N 35°49' E 014°32'0 0.0
2017-Sep-14 01:00N 35°49' E 014°32'0 0.0
2017-Sep-14 00:30N 35°49' E 014°32'0 0.0
2017-Sep-14 00:00N 35°49' E 014°32'0 0.0
2017-Sep-13 23:30N 35°49' E 014°32'0 0.0
2017-Sep-13 23:00N 35°49' E 014°32'0 0.0
2017-Sep-13 22:30N 35°49' E 014°32'0 0.0
2017-Sep-13 22:00N 35°49' E 014°32'0 0.0
2017-Sep-13 21:30N 35°49' E 014°32'0 0.0
2017-Sep-13 21:00N 35°49' E 014°32'0 0.0
2017-Sep-13 20:30N 35°49' E 014°32'0 0.0
2017-Sep-13 20:00N 35°49' E 014°32'0 0.0
2017-Sep-13 19:30N 35°49' E 014°32'0 0.0
2017-Sep-13 19:00N 35°49' E 014°32'0 0.0
2017-Sep-13 18:30N 35°49' E 014°32'0 0.0
2017-Sep-13 18:00N 35°49' E 014°32'0 0.0
2017-Sep-13 17:30N 35°49' E 014°32'0 0.0
2017-Sep-13 17:00N 35°49' E 014°32'0 0.0
2017-Sep-13 16:30N 35°49' E 014°32'0 0.0
2017-Sep-13 16:00N 35°49' E 014°32'0 0.0
2017-Sep-13 15:30N 35°49' E 014°32'0 0.0
2017-Sep-13 15:00N 35°49' E 014°32'0 0.0
2017-Sep-13 14:30N 35°49' E 014°32'0 0.0
2017-Sep-13 14:00N 35°49' E 014°32'0 0.0
2017-Sep-13 13:30N 35°49' E 014°32'0 0.0
2017-Sep-13 13:00N 35°49' E 014°32'0 0.0
2017-Sep-13 12:30N 35°49' E 014°32'0 0.0
2017-Sep-13 12:00N 35°49' E 014°32'0 0.0
2017-Sep-13 11:29N 35°49' E 014°32'0 0.0
2017-Sep-13 11:00N 35°49' E 014°32'0 0.0
2017-Sep-13 10:30N 35°49' E 014°32'0 0.0
2017-Sep-13 10:00N 35°49' E 014°32'0 0.0
2017-Sep-13 09:30N 35°49' E 014°32'0 0.0
2017-Sep-13 09:00N 35°49' E 014°32'0 0.0
2017-Sep-13 08:30N 35°49' E 014°32'0 0.0
2017-Sep-13 08:00N 35°49' E 014°32'0 0.0
2017-Sep-13 07:30N 35°49' E 014°32'0 0.0
2017-Sep-13 07:00N 35°49' E 014°32'0 0.0
2017-Sep-13 06:30N 35°49' E 014°32'0 0.0
2017-Sep-13 06:00N 35°49' E 014°32'0 0.0
2017-Sep-13 05:30N 35°49' E 014°32'0 0.1
2017-Sep-13 05:00N 35°49' E 014°32'0 0.0
2017-Sep-13 04:30N 35°49' E 014°32'0 0.0
2017-Sep-13 04:00N 35°49' E 014°32'0 0.0
2017-Sep-13 03:30N 35°49' E 014°32'0 0.0
2017-Sep-13 03:00N 35°49' E 014°32'0 0.0
2017-Sep-13 02:30N 35°49' E 014°32'0 0.1
2017-Sep-13 02:00N 35°49' E 014°32'0 0.0
2017-Sep-13 01:30N 35°49' E 014°32'0 0.1
2017-Sep-13 01:00N 35°49' E 014°32'1 2.7
2017-Sep-13 00:30N 35°49' E 014°34'2 4.0
2017-Sep-13 00:00N 35°47' E 014°36'0 0.6
2017-Sep-12 23:30N 35°47' E 014°35'2 3.9
2017-Sep-12 23:00N 35°46' E 014°37'2 4.3
2017-Sep-12 22:31N 35°44' E 014°38'1 1.5
2017-Sep-12 22:00N 35°43' E 014°38'0 0.5
2017-Sep-12 21:30N 35°43' E 014°38'0 0.8
2017-Sep-12 21:00N 35°43' E 014°38'0 0.7
2017-Sep-12 20:30N 35°44' E 014°37'0 0.7
2017-Sep-12 20:00N 35°44' E 014°37'0 0.6
2017-Sep-12 19:30N 35°44' E 014°37'1 1.7
2017-Sep-12 19:00N 35°43' E 014°36'4 7.4
2017-Sep-12 18:30N 35°44' E 014°31'713.4
2017-Sep-12 18:00N 35°44' E 014°23'713.7
2017-Sep-12 17:31N 35°48' E 014°16'713.7
2017-Sep-12 17:01N 35°51' E 014°09'713.8
2017-Sep-12 16:30N 35°55' E 014°02'714.0
2017-Sep-12 16:01N 35°59' E 013°54'714.2
2017-Sep-12 15:30N 36°03' E 013°47'714.3
2017-Sep-12 15:00N 36°07' E 013°40'713.9
2017-Sep-12 14:30N 36°11' E 013°33'1313.6
2017-Sep-12 13:31N 36°18' E 013°18'313.4
2017-Sep-12 13:19N 36°19' E 013°16'1913.1
2017-Sep-12 11:54N 36°29' E 012°56'512.9
2017-Sep-12 11:30N 36°32' E 012°50'  
2017-Sep-09 08:24N 36°01' W 005°10'  
Track history (hours):
 
Tides and Currents Weather Stations Pressure Air Temp Water Temp Dewpoint Dewpoint Depression Visibility Wind Speed Wind Dir Waves Ship Positions

Nexoe Maersk

Last reported at 2017-Sep-19 08:10 UTC. Time now 2017-Sep-19 11:46 UTC.
Position N 37°13' W 001°05'.

Length 198 m; beam 30 m; draft 11 m.

Type: Cargo ship. MMSI: 219955000.

Date/timePositionNaut miles runAvg speedWind from/ knotsBaromVisibWave heightAir tempDewpointWater temp
2017-Sep-19 08:10N 37°13' W 001°05'211.4
2017-Sep-19 08:00N 37°14' W 001°03'611.5
2017-Sep-19 07:30N 37°18' W 000°57'611.5
2017-Sep-19 07:00N 37°21' W 000°52'611.6
2017-Sep-19 06:30N 37°25' W 000°47'611.4
2017-Sep-19 06:00N 37°29' W 000°42'510.9
2017-Sep-19 05:30N 37°33' W 000°36'611.1
2017-Sep-19 05:00N 37°37' W 000°31'611.5
2017-Sep-19 04:30N 37°42' W 000°27'611.5
2017-Sep-19 04:00N 37°46' W 000°23'611.5
2017-Sep-19 03:28N 37°51' W 000°19'611.4
2017-Sep-19 02:58N 37°57' W 000°15'511.5
2017-Sep-19 02:30N 38°01' W 000°12'11511.4
2017-Sep-18 16:26N 39°41' E 001°03'511.9
2017-Sep-18 16:00N 39°45' E 001°06'612.1
2017-Sep-18 15:29N 39°51' E 001°10'612.5
2017-Sep-18 15:00N 39°56' E 001°14'612.6
2017-Sep-18 14:30N 40°01' E 001°18'612.7
2017-Sep-18 14:00N 40°07' E 001°22'612.6
2017-Sep-18 13:30N 40°12' E 001°26'612.3
2017-Sep-18 13:00N 40°18' E 001°30'611.7
2017-Sep-18 12:30N 40°23' E 001°33'611.7
2017-Sep-18 12:00N 40°28' E 001°37'611.6
2017-Sep-18 11:30N 40°33' E 001°40'611.5
2017-Sep-18 11:00N 40°38' E 001°44'611.5
2017-Sep-18 10:30N 40°44' E 001°47'611.5
2017-Sep-18 10:00N 40°49' E 001°50'611.5
2017-Sep-18 09:30N 40°54' E 001°54'611.5
2017-Sep-18 09:00N 40°59' E 001°58'611.4
2017-Sep-18 08:30N 41°04' E 002°01'611.2
2017-Sep-18 08:00N 41°09' E 002°05'611.2
2017-Sep-18 07:30N 41°14' E 002°09'5 9.9
2017-Sep-18 07:00N 41°19' E 002°10'1 0.1
2017-Sep-17 16:52N 41°19' E 002°09'0 0.0
2017-Sep-17 16:16N 41°19' E 002°09'0 0.0
2017-Sep-17 15:58N 41°19' E 002°09'0 0.0
2017-Sep-17 15:25N 41°19' E 002°09'0 0.0
2017-Sep-17 15:01N 41°19' E 002°09'0 0.0
2017-Sep-17 14:29N 41°19' E 002°09'0 0.0
2017-Sep-17 14:00N 41°19' E 002°09'0 0.0
2017-Sep-17 13:29N 41°19' E 002°09'0 0.0
2017-Sep-17 12:57N 41°19' E 002°09'0 0.0
2017-Sep-17 12:22N 41°19' E 002°09'0 0.0
2017-Sep-17 11:52N 41°19' E 002°09'1 1.7
2017-Sep-17 11:29N 41°19' E 002°10'4 7.6
2017-Sep-17 11:00N 41°16' E 002°12'816.5
2017-Sep-17 10:30N 41°09' E 002°05'1020.5
2017-Sep-17 10:00N 41°01' E 001°57'1020.3
2017-Sep-17 09:30N 40°52' E 001°50'1020.4
2017-Sep-17 09:00N 40°44' E 001°42'1020.3
2017-Sep-17 08:30N 40°36' E 001°35'1020.1
2017-Sep-17 08:00N 40°27' E 001°27'1020.2
2017-Sep-17 07:30N 40°19' E 001°20'1019.5
2017-Sep-17 07:00N 40°11' E 001°12'1019.5
2017-Sep-17 06:30N 40°03' E 001°05'1019.4
2017-Sep-17 06:00N 39°55' E 000°58'43 1.5
2017-Sep-16 00:14N 39°14' E 001°19'416.0
2017-Sep-16 00:00N 39°14' E 001°24'816.1
2017-Sep-15 23:30N 39°13' E 001°34'816.0
2017-Sep-15 23:00N 39°11' E 001°44'816.0
2017-Sep-15 22:30N 39°10' E 001°54'816.5
2017-Sep-15 22:00N 39°08' E 002°04'917.1
2017-Sep-15 21:30N 39°06' E 002°15'817.2
2017-Sep-15 21:00N 39°04' E 002°26'917.0
2017-Sep-15 20:30N 39°02' E 002°37'816.7
2017-Sep-15 20:00N 39°00' E 002°47'816.4
2017-Sep-15 19:30N 38°59' E 002°57'816.0
2017-Sep-15 19:00N 38°58' E 003°07'815.8
2017-Sep-15 18:30N 38°56' E 003°17'815.9
2017-Sep-15 18:00N 38°54' E 003°27'815.8
2017-Sep-15 17:30N 38°52' E 003°37'815.8
2017-Sep-15 17:00N 38°50' E 003°47'915.9
2017-Sep-15 16:26N 38°48' E 003°58'22315.8
2017-Sep-15 02:22N 37°54' E 008°34'615.7
2017-Sep-15 02:00N 37°53' E 008°41'1315.6
2017-Sep-15 01:11N 37°50' E 008°57'415.6
2017-Sep-15 00:54N 37°50' E 009°02'815.8
2017-Sep-15 00:25N 37°48' E 009°11'615.6
2017-Sep-15 00:00N 37°46' E 009°19'815.5
2017-Sep-14 23:30N 37°45' E 009°29'815.3
2017-Sep-14 22:59N 37°43' E 009°39'815.2
2017-Sep-14 22:30N 37°41' E 009°48'715.3
2017-Sep-14 22:00N 37°40' E 009°57'815.5
2017-Sep-14 21:30N 37°40' E 010°07'815.3
2017-Sep-14 21:00N 37°40' E 010°17'1015.5
2017-Sep-14 20:22N 37°37' E 010°29'515.5
2017-Sep-14 20:00N 37°36' E 010°36'815.6
2017-Sep-14 19:30N 37°34' E 010°45'2315.7
2017-Sep-14 18:03N 37°26' E 011°12'116.1
2017-Sep-14 18:00N 37°26' E 011°13'816.0
2017-Sep-14 17:30N 37°22' E 011°22'816.0
2017-Sep-14 17:00N 37°18' E 011°31'816.1
2017-Sep-14 16:30N 37°14' E 011°40'816.1
2017-Sep-14 15:59N 37°10' E 011°48'2216.0
2017-Sep-14 14:35N 36°57' E 012°12'115.9
2017-Sep-14 14:30N 36°56' E 012°13'816.1
2017-Sep-14 14:00N 36°51' E 012°21'816.2
2017-Sep-14 13:31N 36°46' E 012°29'816.1
2017-Sep-14 13:00N 36°41' E 012°37'816.1
2017-Sep-14 12:31N 36°37' E 012°45'816.2
2017-Sep-14 12:00N 36°33' E 012°54'816.4
2017-Sep-14 11:30N 36°29' E 013°03'1016.4
2017-Sep-14 10:55N 36°23' E 013°13'716.3
2017-Sep-14 10:30N 36°19' E 013°19'816.1
2017-Sep-14 10:00N 36°15' E 013°28'815.7
2017-Sep-14 09:30N 36°10' E 013°35'815.7
2017-Sep-14 09:00N 36°06' E 013°43'815.5
2017-Sep-14 08:30N 36°02' E 013°52'815.7
2017-Sep-14 08:00N 35°58' E 013°60'815.8
2017-Sep-14 07:30N 35°53' E 014°08'815.7
2017-Sep-14 07:00N 35°49' E 014°16'815.5
2017-Sep-14 06:30N 35°44' E 014°24'815.3
2017-Sep-14 06:00N 35°45' E 014°33'4 8.0
2017-Sep-14 05:30N 35°49' E 014°33'0 0.5
2017-Sep-14 05:00N 35°49' E 014°32'0 0.0
2017-Sep-14 04:30N 35°49' E 014°32'0 0.0
2017-Sep-14 04:00N 35°49' E 014°32'0 0.0
2017-Sep-14 03:30N 35°49' E 014°32'0 0.0
2017-Sep-14 02:58N 35°49' E 014°32'0 0.0
2017-Sep-14 02:30N 35°49' E 014°32'0 0.0
2017-Sep-14 02:00N 35°49' E 014°32'0 0.0
2017-Sep-14 01:29N 35°49' E 014°32'0 0.0
2017-Sep-14 01:00N 35°49' E 014°32'0 0.0
2017-Sep-14 00:30N 35°49' E 014°32'0 0.0
2017-Sep-14 00:00N 35°49' E 014°32'0 0.0
2017-Sep-13 23:30N 35°49' E 014°32'0 0.0
2017-Sep-13 23:00N 35°49' E 014°32'0 0.0
2017-Sep-13 22:30N 35°49' E 014°32'0 0.0
2017-Sep-13 22:00N 35°49' E 014°32'0 0.0
2017-Sep-13 21:30N 35°49' E 014°32'0 0.0
2017-Sep-13 21:00N 35°49' E 014°32'0 0.0
2017-Sep-13 20:30N 35°49' E 014°32'0 0.0
2017-Sep-13 20:00N 35°49' E 014°32'0 0.0
2017-Sep-13 19:30N 35°49' E 014°32'0 0.0
2017-Sep-13 19:00N 35°49' E 014°32'0 0.0
2017-Sep-13 18:30N 35°49' E 014°32'0 0.0
2017-Sep-13 18:00N 35°49' E 014°32'0 0.0
2017-Sep-13 17:30N 35°49' E 014°32'0 0.0
2017-Sep-13 17:00N 35°49' E 014°32'0 0.0
2017-Sep-13 16:30N 35°49' E 014°32'0 0.0
2017-Sep-13 16:00N 35°49' E 014°32'0 0.0
2017-Sep-13 15:30N 35°49' E 014°32'0 0.0
2017-Sep-13 15:00N 35°49' E 014°32'0 0.0
2017-Sep-13 14:30N 35°49' E 014°32'0 0.0
2017-Sep-13 14:00N 35°49' E 014°32'0 0.0
2017-Sep-13 13:30N 35°49' E 014°32'0 0.0
2017-Sep-13 13:00N 35°49' E 014°32'0 0.0
2017-Sep-13 12:30N 35°49' E 014°32'0 0.0
2017-Sep-13 12:00N 35°49' E 014°32'0 0.0
2017-Sep-13 11:29N 35°49' E 014°32'0 0.0
2017-Sep-13 11:00N 35°49' E 014°32'0 0.0
2017-Sep-13 10:30N 35°49' E 014°32'0 0.0
2017-Sep-13 10:00N 35°49' E 014°32'0 0.0
2017-Sep-13 09:30N 35°49' E 014°32'0 0.0
2017-Sep-13 09:00N 35°49' E 014°32'0 0.0
2017-Sep-13 08:30N 35°49' E 014°32'0 0.0
2017-Sep-13 08:00N 35°49' E 014°32'0 0.0
2017-Sep-13 07:30N 35°49' E 014°32'0 0.0
2017-Sep-13 07:00N 35°49' E 014°32'0 0.0
2017-Sep-13 06:30N 35°49' E 014°32'0 0.0
2017-Sep-13 06:00N 35°49' E 014°32'0 0.0
2017-Sep-13 05:30N 35°49' E 014°32'0 0.1
2017-Sep-13 05:00N 35°49' E 014°32'0 0.0
2017-Sep-13 04:30N 35°49' E 014°32'0 0.0
2017-Sep-13 04:00N 35°49' E 014°32'0 0.0
2017-Sep-13 03:30N 35°49' E 014°32'0 0.0
2017-Sep-13 03:00N 35°49' E 014°32'0 0.0
2017-Sep-13 02:30N 35°49' E 014°32'0 0.1
2017-Sep-13 02:00N 35°49' E 014°32'0 0.0
2017-Sep-13 01:30N 35°49' E 014°32'0 0.1
2017-Sep-13 01:00N 35°49' E 014°32'1 2.7
2017-Sep-13 00:30N 35°49' E 014°34'2 4.0
2017-Sep-13 00:00N 35°47' E 014°36'0 0.6
2017-Sep-12 23:30N 35°47' E 014°35'2 3.9
2017-Sep-12 23:00N 35°46' E 014°37'2 4.3
2017-Sep-12 22:31N 35°44' E 014°38'1 1.5
2017-Sep-12 22:00N 35°43' E 014°38'0 0.5
2017-Sep-12 21:30N 35°43' E 014°38'0 0.8
2017-Sep-12 21:00N 35°43' E 014°38'0 0.7
2017-Sep-12 20:30N 35°44' E 014°37'0 0.7
2017-Sep-12 20:00N 35°44' E 014°37'0 0.6
2017-Sep-12 19:30N 35°44' E 014°37'1 1.7
2017-Sep-12 19:00N 35°43' E 014°36'4 7.4
2017-Sep-12 18:30N 35°44' E 014°31'713.4
2017-Sep-12 18:00N 35°44' E 014°23'713.7
2017-Sep-12 17:31N 35°48' E 014°16'713.7
2017-Sep-12 17:01N 35°51' E 014°09'713.8
2017-Sep-12 16:30N 35°55' E 014°02'714.0
2017-Sep-12 16:01N 35°59' E 013°54'714.2
2017-Sep-12 15:30N 36°03' E 013°47'714.3
2017-Sep-12 15:00N 36°07' E 013°40'713.9
2017-Sep-12 14:30N 36°11' E 013°33'1313.6
2017-Sep-12 13:31N 36°18' E 013°18'313.4
2017-Sep-12 13:19N 36°19' E 013°16'1913.1
2017-Sep-12 11:54N 36°29' E 012°56'512.9
2017-Sep-12 11:30N 36°32' E 012°50'  
2017-Sep-09 08:24N 36°01' W 005°10'  

Dump ship's entire track history